Time,TemperatureF,DewpointF,PressureIn,WindDirection,WindDirectionDegrees,WindSpeedMPH,WindSpeedGustMPH,Humidity,HourlyPrecipIn,Conditions,Clouds,dailyrainin,SoftwareType,DateUTC
2013-02-14 00:01:00,64.0,61.0,29.90,West,280,1.0,5.0,90,0.00,,,0.00,Meteo,2013-02-14 05:01:00,
2013-02-14 00:03:00,64.0,61.0,29.90,West,274,2.0,5.0,90,0.00,,,0.00,Meteo,2013-02-14 05:03:00,
2013-02-14 00:05:00,64.0,61.0,29.90,West,274,2.0,2.0,90,0.00,,,0.00,Meteo,2013-02-14 05:05:00,
2013-02-14 00:10:00,64.0,61.0,29.90,West,274,0.0,1.0,89,0.00,,,0.00,Meteo,2013-02-14 05:10:00,
2013-02-14 00:15:00,64.0,61.0,29.90,North,0,0.0,0.0,89,0.00,,,0.00,Meteo,2013-02-14 05:15:00,
2013-02-14 00:20:00,64.0,61.0,29.90,North,0,0.0,0.0,90,0.00,,,0.00,Meteo,2013-02-14 05:20:00,
2013-02-14 00:25:00,64.0,61.0,29.90,West,274,1.0,3.0,90,0.00,,,0.00,Meteo,2013-02-14 05:25:00,
2013-02-14 00:30:00,64.0,61.0,29.90,North,0,0.0,0.0,89,0.00,,,0.00,Meteo,2013-02-14 05:30:00,
2013-02-14 00:35:00,64.0,61.0,29.90,North,0,0.0,0.0,90,0.00,,,0.00,Meteo,2013-02-14 05:35:00,
2013-02-14 00:40:00,64.0,61.0,29.90,West,274,1.0,2.0,91,0.00,,,0.00,Meteo,2013-02-14 05:40:00,
2013-02-14 00:45:00,64.0,61.0,29.90,West,274,0.0,1.0,90,0.00,,,0.00,Meteo,2013-02-14 05:45:00,
2013-02-14 00:50:00,64.0,61.0,29.90,North,0,0.0,0.0,90,0.00,,,0.00,Meteo,2013-02-14 05:50:00,
2013-02-14 00:55:00,64.0,61.0,29.90,West,274,2.0,3.0,90,0.00,,,0.00,Meteo,2013-02-14 05:55:00,
2013-02-14 01:00:00,64.0,61.0,29.90,West,274,1.0,2.0,90,0.00,,,0.00,Meteo,2013-02-14 06:00:00,
2013-02-14 01:05:00,64.0,61.0,29.90,West,274,2.0,3.0,90,0.00,,,0.00,Meteo,2013-02-14 06:05:00,
2013-02-14 01:10:00,64.0,61.0,29.90,West,273,1.0,3.0,90,0.00,,,0.00,Meteo,2013-02-14 06:10:00,
2013-02-14 01:15:00,64.0,61.0,29.90,West,273,2.0,3.0,89,0.00,,,0.00,Meteo,2013-02-14 06:15:00,
2013-02-14 01:20:00,65.0,62.0,29.90,West,274,1.0,3.0,90,0.00,,,0.00,Meteo,2013-02-14 06:20:00,
2013-02-14 01:25:00,64.0,61.0,29.90,SW,229,2.0,3.0,90,0.00,,,0.00,Meteo,2013-02-14 06:25:00,
2013-02-14 01:30:00,64.0,61.0,29.90,North,0,0.0,0.0,91,0.00,,,0.00,Meteo,2013-02-14 06:30:00,
2013-02-14 01:35:00,64.0,61.0,29.90,North,0,0.0,0.0,91,0.00,,,0.00,Meteo,2013-02-14 06:35:00,
2013-02-14 01:40:00,64.0,62.0,29.90,North,0,0.0,0.0,92,0.00,,,0.00,Meteo,2013-02-14 06:40:00,
2013-02-14 01:45:00,64.0,62.0,29.89,North,0,0.0,0.0,93,0.00,,,0.00,Meteo,2013-02-14 06:45:00,
2013-02-14 01:50:00,64.0,62.0,29.89,North,0,0.0,0.0,94,0.00,,,0.00,Meteo,2013-02-14 06:50:00,
2013-02-14 01:55:00,64.0,62.0,29.89,SW,228,0.0,2.0,94,0.00,,,0.00,Meteo,2013-02-14 06:55:00,
2013-02-14 02:00:00,64.0,62.0,29.89,North,0,0.0,0.0,94,0.00,,,0.00,Meteo,2013-02-14 07:00:00,
2013-02-14 02:05:00,64.0,62.0,29.89,North,0,0.0,0.0,94,0.00,,,0.00,Meteo,2013-02-14 07:05:00,
2013-02-14 02:10:00,64.0,62.0,29.89,North,0,0.0,0.0,94,0.01,,,0.01,Meteo,2013-02-14 07:10:00,
2013-02-14 02:15:00,64.0,63.0,29.89,SW,229,1.0,2.0,95,0.01,,,0.01,Meteo,2013-02-14 07:15:00,
2013-02-14 02:20:00,64.0,63.0,29.88,North,0,0.0,0.0,95,0.01,,,0.01,Meteo,2013-02-14 07:20:00,
2013-02-14 02:25:00,64.0,63.0,29.88,North,0,0.0,0.0,95,0.01,,,0.01,Meteo,2013-02-14 07:25:00,
2013-02-14 02:30:00,64.0,63.0,29.88,North,0,0.0,0.0,95,0.01,,,0.01,Meteo,2013-02-14 07:30:00,
2013-02-14 02:35:00,64.0,63.0,29.88,North,0,0.0,0.0,95,0.01,,,0.01,Meteo,2013-02-14 07:35:00,
2013-02-14 02:40:00,64.0,63.0,29.88,SW,229,1.0,2.0,96,0.01,,,0.01,Meteo,2013-02-14 07:40:00,
2013-02-14 02:45:00,64.0,63.0,29.88,North,0,0.0,0.0,96,0.01,,,0.01,Meteo,2013-02-14 07:45:00,
2013-02-14 02:51:00,64.0,63.0,29.88,North,0,0.0,0.0,96,0.01,,,0.01,Meteo,2013-02-14 07:51:00,
2013-02-14 02:56:00,64.0,63.0,29.88,SW,230,1.0,3.0,96,0.01,,,0.01,Meteo,2013-02-14 07:56:00,
2013-02-14 03:01:00,64.0,63.0,29.88,WNW,295,2.0,2.0,95,0.01,,,0.01,Meteo,2013-02-14 08:01:00,
2013-02-14 03:06:00,64.0,62.0,29.88,WNW,302,2.0,3.0,94,0.01,,,0.01,Meteo,2013-02-14 08:06:00,
2013-02-14 03:11:00,63.0,61.0,29.88,NW,322,2.0,5.0,93,0.00,,,0.01,Meteo,2013-02-14 08:11:00,
2013-02-14 03:16:00,63.0,60.0,29.88,North,0,0.0,0.0,91,0.00,,,0.01,Meteo,2013-02-14 08:16:00,
2013-02-14 03:21:00,63.0,60.0,29.88,North,0,0.0,0.0,91,0.00,,,0.01,Meteo,2013-02-14 08:21:00,
2013-02-14 03:26:00,63.0,60.0,29.88,North,0,0.0,0.0,91,0.00,,,0.01,Meteo,2013-02-14 08:26:00,
2013-02-14 03:31:00,63.0,60.0,29.88,North,0,0.0,0.0,91,0.00,,,0.01,Meteo,2013-02-14 08:31:00,
2013-02-14 03:36:00,62.0,60.0,29.87,North,0,0.0,0.0,92,0.00,,,0.01,Meteo,2013-02-14 08:36:00,
2013-02-14 03:41:00,62.0,60.0,29.87,North,0,0.0,0.0,93,0.00,,,0.01,Meteo,2013-02-14 08:41:00,
2013-02-14 03:46:00,62.0,60.0,29.87,North,0,0.0,0.0,93,0.00,,,0.01,Meteo,2013-02-14 08:46:00,
2013-02-14 03:51:00,62.0,60.0,29.87,North,0,0.0,0.0,94,0.00,,,0.01,Meteo,2013-02-14 08:51:00,
2013-02-14 03:56:00,62.0,60.0,29.87,North,0,0.0,0.0,94,0.00,,,0.01,Meteo,2013-02-14 08:56:00,
2013-02-14 04:01:00,62.0,61.0,29.86,North,0,0.0,0.0,95,0.00,,,0.01,Meteo,2013-02-14 09:01:00,
2013-02-14 04:06:00,62.0,61.0,29.86,North,0,0.0,0.0,95,0.00,,,0.01,Meteo,2013-02-14 09:06:00,
2013-02-14 04:11:00,62.0,61.0,29.86,North,0,0.0,0.0,95,0.00,,,0.01,Meteo,2013-02-14 09:11:00,
2013-02-14 04:16:00,62.0,61.0,29.85,North,0,0.0,0.0,96,0.00,,,0.01,Meteo,2013-02-14 09:16:00,
2013-02-14 04:21:00,62.0,61.0,29.85,North,0,0.0,0.0,96,0.00,,,0.01,Meteo,2013-02-14 09:21:00,
2013-02-14 04:26:00,62.0,61.0,29.85,NW,323,1.0,2.0,96,0.00,,,0.01,Meteo,2013-02-14 09:26:00,
2013-02-14 04:31:00,62.0,61.0,29.86,North,0,0.0,0.0,96,0.00,,,0.01,Meteo,2013-02-14 09:31:00,
2013-02-14 04:36:00,62.0,61.0,29.86,NW,323,1.0,2.0,96,0.00,,,0.01,Meteo,2013-02-14 09:36:00,
2013-02-14 04:41:00,62.0,61.0,29.86,NW,312,1.0,2.0,96,0.01,,,0.02,Meteo,2013-02-14 09:41:00,
2013-02-14 04:46:00,62.0,61.0,29.86,North,0,0.0,0.0,97,0.01,,,0.02,Meteo,2013-02-14 09:46:00,
2013-02-14 04:51:00,62.0,61.0,29.86,NW,313,1.0,2.0,97,0.01,,,0.02,Meteo,2013-02-14 09:51:00,
2013-02-14 04:56:00,62.0,61.0,29.86,North,0,0.0,0.0,97,0.01,,,0.02,Meteo,2013-02-14 09:56:00,
2013-02-14 05:01:00,62.0,61.0,29.87,North,0,0.0,0.0,97,0.01,,,0.02,Meteo,2013-02-14 10:01:00,
2013-02-14 05:06:00,62.0,61.0,29.87,North,0,0.0,0.0,97,0.01,,,0.02,Meteo,2013-02-14 10:06:00,
2013-02-14 05:12:00,62.0,61.0,29.87,North,0,0.0,0.0,97,0.01,,,0.02,Meteo,2013-02-14 10:12:00,
2013-02-14 05:17:00,62.0,61.0,29.87,North,0,0.0,0.0,97,0.01,,,0.02,Meteo,2013-02-14 10:17:00,
2013-02-14 05:22:00,62.0,61.0,29.87,North,0,0.0,0.0,97,0.01,,,0.02,Meteo,2013-02-14 10:22:00,
2013-02-14 05:27:00,62.0,61.0,29.87,North,0,0.0,0.0,97,0.01,,,0.02,Meteo,2013-02-14 10:27:00,
2013-02-14 05:32:00,62.0,61.0,29.88,North,0,0.0,0.0,97,0.01,,,0.02,Meteo,2013-02-14 10:32:00,
2013-02-14 05:37:00,63.0,62.0,29.88,North,0,0.0,0.0,97,0.01,,,0.02,Meteo,2013-02-14 10:37:00,
2013-02-14 05:42:00,63.0,62.0,29.88,North,0,0.0,0.0,97,0.00,,,0.02,Meteo,2013-02-14 10:42:00,
2013-02-14 05:47:00,63.0,62.0,29.87,North,0,0.0,0.0,97,0.00,,,0.02,Meteo,2013-02-14 10:47:00,
2013-02-14 05:52:00,63.0,62.0,29.87,North,0,0.0,0.0,97,0.00,,,0.02,Meteo,2013-02-14 10:52:00,
2013-02-14 05:57:00,63.0,62.0,29.87,North,0,0.0,0.0,97,0.00,,,0.02,Meteo,2013-02-14 10:57:00,
2013-02-14 06:02:00,63.0,62.0,29.88,North,0,0.0,0.0,97,0.00,,,0.02,Meteo,2013-02-14 11:02:00,
2013-02-14 06:07:00,63.0,62.0,29.88,NW,311,1.0,2.0,98,0.00,,,0.02,Meteo,2013-02-14 11:07:00,
2013-02-14 06:12:00,63.0,62.0,29.88,North,0,0.0,0.0,98,0.00,,,0.02,Meteo,2013-02-14 11:12:00,
2013-02-14 06:17:00,63.0,62.0,29.88,North,0,0.0,0.0,97,0.00,,,0.02,Meteo,2013-02-14 11:17:00,
2013-02-14 06:22:00,63.0,62.0,29.88,North,0,0.0,0.0,97,0.00,,,0.02,Meteo,2013-02-14 11:22:00,
2013-02-14 06:27:00,63.0,62.0,29.88,North,0,0.0,0.0,97,0.00,,,0.02,Meteo,2013-02-14 11:27:00,
2013-02-14 06:32:00,62.0,61.0,29.89,North,0,0.0,0.0,97,0.00,,,0.02,Meteo,2013-02-14 11:32:00,
2013-02-14 06:38:00,62.0,61.0,29.89,North,0,0.0,0.0,98,0.00,,,0.02,Meteo,2013-02-14 11:38:00,
2013-02-14 06:43:00,62.0,61.0,29.89,North,0,0.0,0.0,98,0.00,,,0.02,Meteo,2013-02-14 11:43:00,
2013-02-14 06:48:00,62.0,61.0,29.88,North,0,0.0,0.0,98,0.00,,,0.02,Meteo,2013-02-14 11:48:00,
2013-02-14 06:53:00,62.0,61.0,29.88,North,0,0.0,0.0,98,0.00,,,0.02,Meteo,2013-02-14 11:53:00,
2013-02-14 06:58:00,62.0,61.0,29.88,North,0,0.0,0.0,98,0.00,,,0.02,Meteo,2013-02-14 11:58:00,
2013-02-14 07:03:00,62.0,61.0,29.89,North,0,0.0,0.0,98,0.00,,,0.02,Meteo,2013-02-14 12:03:00,
2013-02-14 07:08:00,62.0,61.0,29.89,North,0,0.0,0.0,98,0.00,,,0.02,Meteo,2013-02-14 12:08:00,
2013-02-14 07:13:00,62.0,61.0,29.89,NW,311,1.0,2.0,98,0.00,,,0.02,Meteo,2013-02-14 12:13:00,
2013-02-14 07:18:00,62.0,61.0,29.90,North,0,0.0,0.0,98,0.00,,,0.02,Meteo,2013-02-14 12:18:00,
2013-02-14 07:24:00,62.0,61.0,29.90,NW,311,1.0,1.0,98,0.00,,,0.02,Meteo,2013-02-14 12:24:00,
2013-02-14 07:29:00,62.0,61.0,29.90,NW,312,0.0,1.0,98,0.00,,,0.02,Meteo,2013-02-14 12:29:00,
2013-02-14 07:34:00,62.0,61.0,29.90,North,0,0.0,0.0,98,0.00,,,0.02,Meteo,2013-02-14 12:34:00,
2013-02-14 07:39:00,62.0,61.0,29.90,NW,311,0.0,1.0,98,0.00,,,0.02,Meteo,2013-02-14 12:39:00,
2013-02-14 07:44:00,62.0,61.0,29.90,NW,312,0.0,1.0,98,0.00,,,0.02,Meteo,2013-02-14 12:44:00,
2013-02-14 07:49:00,62.0,61.0,29.91,NW,311,0.0,1.0,98,0.00,,,0.02,Meteo,2013-02-14 12:49:00,
2013-02-14 07:54:00,62.0,61.0,29.91,NW,311,1.0,2.0,98,0.00,,,0.02,Meteo,2013-02-14 12:54:00,
2013-02-14 07:59:00,62.0,61.0,29.91,NW,312,1.0,2.0,98,0.00,,,0.02,Meteo,2013-02-14 12:59:00,
2013-02-14 08:04:00,62.0,61.0,29.92,North,0,0.0,0.0,98,0.00,,,0.02,Meteo,2013-02-14 13:04:00,
2013-02-14 08:09:00,62.0,61.0,29.92,NW,312,1.0,3.0,98,0.00,,,0.02,Meteo,2013-02-14 13:09:00,
2013-02-14 08:14:00,63.0,62.0,29.92,NW,315,1.0,2.0,98,0.00,,,0.02,Meteo,2013-02-14 13:14:00,
2013-02-14 08:19:00,63.0,62.0,29.92,NW,310,2.0,2.0,98,0.00,,,0.02,Meteo,2013-02-14 13:19:00,
2013-02-14 08:24:00,63.0,62.0,29.92,NW,312,2.0,5.0,97,0.01,,,0.03,Meteo,2013-02-14 13:24:00,
2013-02-14 08:29:00,63.0,62.0,29.92,North,0,0.0,0.0,97,0.01,,,0.03,Meteo,2013-02-14 13:29:00,
2013-02-14 08:34:00,63.0,62.0,29.93,NW,312,1.0,2.0,96,0.01,,,0.03,Meteo,2013-02-14 13:34:00,
2013-02-14 08:39:00,63.0,62.0,29.93,NW,305,2.0,3.0,95,0.01,,,0.03,Meteo,2013-02-14 13:39:00,
2013-02-14 08:44:00,64.0,62.0,29.93,North,0,0.0,0.0,94,0.01,,,0.03,Meteo,2013-02-14 13:44:00,
2013-02-14 08:49:00,64.0,62.0,29.93,NW,304,1.0,2.0,94,0.01,,,0.03,Meteo,2013-02-14 13:49:00,
2013-02-14 08:54:00,64.0,62.0,29.93,North,0,0.0,0.0,93,0.01,,,0.03,Meteo,2013-02-14 13:54:00,
2013-02-14 08:59:00,64.0,62.0,29.93,North,0,0.0,0.0,93,0.01,,,0.03,Meteo,2013-02-14 13:59:00,
2013-02-14 09:04:00,64.0,62.0,29.94,North,0,0.0,0.0,93,0.01,,,0.03,Meteo,2013-02-14 14:04:00,
2013-02-14 09:09:00,64.0,61.0,29.94,North,0,0.0,0.0,91,0.01,,,0.03,Meteo,2013-02-14 14:09:00,
2013-02-14 09:14:00,64.0,60.0,29.94,NW,304,1.0,2.0,88,0.01,,,0.03,Meteo,2013-02-14 14:14:00,
2013-02-14 09:19:00,65.0,61.0,29.93,NW,305,1.0,2.0,87,0.01,,,0.03,Meteo,2013-02-14 14:19:00,
2013-02-14 09:24:00,65.0,60.0,29.93,NW,305,0.0,2.0,85,0.00,,,0.03,Meteo,2013-02-14 14:24:00,
2013-02-14 09:29:00,66.0,61.0,29.93,NW,304,2.0,3.0,85,0.00,,,0.03,Meteo,2013-02-14 14:29:00,
2013-02-14 09:34:00,66.0,61.0,29.94,WNW,303,2.0,5.0,84,0.00,,,0.03,Meteo,2013-02-14 14:34:00,
2013-02-14 09:39:00,66.0,60.0,29.94,NNW,335,2.0,3.0,81,0.00,,,0.03,Meteo,2013-02-14 14:39:00,
2013-02-14 09:44:00,66.0,61.0,29.94,NNW,336,3.0,6.0,83,0.00,,,0.03,Meteo,2013-02-14 14:44:00,
2013-02-14 09:49:00,66.0,60.0,29.95,NW,319,4.0,8.0,82,0.00,,,0.03,Meteo,2013-02-14 14:49:00,
2013-02-14 09:54:00,66.0,60.0,29.95,NW,323,2.0,6.0,82,0.00,,,0.03,Meteo,2013-02-14 14:54:00,
2013-02-14 09:59:00,66.0,61.0,29.95,NW,314,3.0,6.0,83,0.00,,,0.03,Meteo,2013-02-14 14:59:00,
2013-02-14 10:04:00,67.0,61.0,29.96,WNW,303,3.0,5.0,81,0.00,,,0.03,Meteo,2013-02-14 15:04:00,
2013-02-14 10:09:00,67.0,61.0,29.96,North,353,6.0,8.0,80,0.00,,,0.03,Meteo,2013-02-14 15:09:00,
2013-02-14 10:14:00,67.0,61.0,29.96,North,350,5.0,10.0,81,0.00,,,0.03,Meteo,2013-02-14 15:14:00,
2013-02-14 10:19:00,66.0,60.0,29.96,North,349,5.0,7.0,81,0.00,,,0.03,Meteo,2013-02-14 15:19:00,
2013-02-14 10:24:00,66.0,61.0,29.96,NNW,345,5.0,7.0,83,0.00,,,0.03,Meteo,2013-02-14 15:24:00,
2013-02-14 10:29:00,66.0,61.0,29.96,NW,321,3.0,5.0,84,0.00,,,0.03,Meteo,2013-02-14 15:29:00,
2013-02-14 10:34:00,66.0,61.0,29.97,North,353,2.0,3.0,84,0.00,,,0.03,Meteo,2013-02-14 15:34:00,
2013-02-14 10:39:00,66.0,61.0,29.97,NNW,329,2.0,5.0,83,0.00,,,0.03,Meteo,2013-02-14 15:39:00,
2013-02-14 10:44:00,66.0,61.0,29.97,NNW,345,4.0,6.0,83,0.00,,,0.03,Meteo,2013-02-14 15:44:00,
2013-02-14 10:49:00,67.0,61.0,29.96,NNW,347,4.0,7.0,82,0.00,,,0.03,Meteo,2013-02-14 15:49:00,
2013-02-14 10:54:00,67.0,61.0,29.96,NNW,327,3.0,6.0,82,0.00,,,0.03,Meteo,2013-02-14 15:54:00,
2013-02-14 10:59:00,67.0,61.0,29.96,North,351,3.0,6.0,81,0.00,,,0.03,Meteo,2013-02-14 15:59:00,
2013-02-14 11:04:00,66.0,60.0,29.97,North,354,5.0,6.0,82,0.00,,,0.03,Meteo,2013-02-14 16:04:00,
2013-02-14 11:09:00,66.0,60.0,29.97,North,349,5.0,7.0,82,0.00,,,0.03,Meteo,2013-02-14 16:09:00,
2013-02-14 11:15:00,66.0,60.0,29.97,North,351,6.0,8.0,82,0.00,,,0.03,Meteo,2013-02-14 16:15:00,
2013-02-14 11:20:00,66.0,61.0,29.97,NNW,340,3.0,5.0,83,0.00,,,0.03,Meteo,2013-02-14 16:20:00,
2013-02-14 11:25:00,66.0,60.0,29.97,North,353,6.0,10.0,81,0.00,,,0.03,Meteo,2013-02-14 16:25:00,
2013-02-14 11:30:00,66.0,60.0,29.97,North,351,7.0,9.0,82,0.00,,,0.03,Meteo,2013-02-14 16:30:00,
2013-02-14 11:36:00,66.0,61.0,29.97,North,352,8.0,12.0,83,0.00,,,0.03,Meteo,2013-02-14 16:36:00,
2013-02-14 11:41:00,66.0,60.0,29.97,NNW,348,6.0,7.0,82,0.00,,,0.03,Meteo,2013-02-14 16:41:00,
2013-02-14 11:46:00,66.0,61.0,29.96,North,8,4.0,8.0,83,0.00,,,0.03,Meteo,2013-02-14 16:46:00,
2013-02-14 11:51:00,65.0,59.0,29.96,North,352,6.0,10.0,82,0.00,,,0.03,Meteo,2013-02-14 16:51:00,
2013-02-14 11:57:00,65.0,59.0,29.96,North,349,7.0,10.0,81,0.00,,,0.03,Meteo,2013-02-14 16:57:00,
2013-02-14 12:02:00,65.0,59.0,29.96,North,352,9.0,12.0,81,0.00,,,0.03,Meteo,2013-02-14 17:02:00,
2013-02-14 12:08:00,65.0,59.0,29.96,North,351,4.0,5.0,80,0.00,,,0.03,Meteo,2013-02-14 17:08:00,
2013-02-14 12:13:00,65.0,59.0,29.96,North,349,5.0,8.0,80,0.00,,,0.03,Meteo,2013-02-14 17:13:00,
2013-02-14 12:18:00,65.0,59.0,29.96,North,351,8.0,11.0,80,0.00,,,0.03,Meteo,2013-02-14 17:18:00,
2013-02-14 12:23:00,66.0,60.0,29.96,NNW,345,6.0,11.0,80,0.01,,,0.04,Meteo,2013-02-14 17:23:00,
2013-02-14 12:28:00,66.0,60.0,29.96,NNW,348,2.0,5.0,80,0.01,,,0.04,Meteo,2013-02-14 17:28:00,
2013-02-14 12:33:00,65.0,58.0,29.96,NNW,339,3.0,5.0,79,0.01,,,0.04,Meteo,2013-02-14 17:33:00,
2013-02-14 12:38:00,65.0,59.0,29.96,NW,307,1.0,3.0,80,0.01,,,0.04,Meteo,2013-02-14 17:38:00,
2013-02-14 12:43:00,65.0,59.0,29.96,NNW,347,3.0,6.0,80,0.01,,,0.04,Meteo,2013-02-14 17:43:00,
2013-02-14 12:48:00,66.0,59.0,29.94,NNW,348,6.0,6.0,77,0.01,,,0.04,Meteo,2013-02-14 17:48:00,
2013-02-14 12:53:00,67.0,60.0,29.94,NE,41,3.0,5.0,77,0.01,,,0.04,Meteo,2013-02-14 17:53:00,
2013-02-14 12:58:00,67.0,59.0,29.94,NE,41,3.0,6.0,76,0.01,,,0.04,Meteo,2013-02-14 17:58:00,
2013-02-14 13:03:00,67.0,59.0,29.93,NE,40,3.0,5.0,75,0.01,,,0.04,Meteo,2013-02-14 18:03:00,
2013-02-14 13:08:00,67.0,59.0,29.93,NNE,33,2.0,2.0,75,0.01,,,0.04,Meteo,2013-02-14 18:08:00,
2013-02-14 13:13:00,67.0,59.0,29.93,North,356,4.0,5.0,76,0.01,,,0.04,Meteo,2013-02-14 18:13:00,
2013-02-14 13:18:00,67.0,58.0,29.93,North,352,2.0,3.0,74,0.01,,,0.04,Meteo,2013-02-14 18:18:00,
2013-02-14 13:23:00,67.0,59.0,29.93,North,354,2.0,5.0,75,0.00,,,0.04,Meteo,2013-02-14 18:23:00,
2013-02-14 13:28:00,67.0,59.0,29.93,North,355,0.0,1.0,75,0.00,,,0.04,Meteo,2013-02-14 18:28:00,
2013-02-14 13:33:00,67.0,59.0,29.92,North,349,2.0,4.0,75,0.00,,,0.04,Meteo,2013-02-14 18:33:00,
2013-02-14 13:38:00,67.0,58.0,29.92,North,350,2.0,2.0,74,0.00,,,0.04,Meteo,2013-02-14 18:38:00,
2013-02-14 13:43:00,66.0,57.0,29.92,North,0,0.0,0.0,74,0.00,,,0.04,Meteo,2013-02-14 18:43:00,
2013-02-14 13:48:00,66.0,57.0,29.92,North,0,0.0,0.0,74,0.00,,,0.04,Meteo,2013-02-14 18:48:00,
2013-02-14 13:53:00,66.0,58.0,29.92,North,352,0.0,1.0,75,0.00,,,0.04,Meteo,2013-02-14 18:53:00,
2013-02-14 13:58:00,66.0,59.0,29.92,North,349,1.0,2.0,77,0.00,,,0.04,Meteo,2013-02-14 18:58:00,
2013-02-14 14:03:00,66.0,59.0,29.93,NW,309,0.0,3.0,77,0.00,,,0.04,Meteo,2013-02-14 19:03:00,
2013-02-14 14:09:00,66.0,59.0,29.93,WNW,292,2.0,3.0,78,0.00,,,0.04,Meteo,2013-02-14 19:09:00,
2013-02-14 14:14:00,66.0,59.0,29.93,North,0,0.0,0.0,77,0.00,,,0.04,Meteo,2013-02-14 19:14:00,
2013-02-14 14:19:00,66.0,59.0,29.91,WNW,291,0.0,2.0,77,0.00,,,0.04,Meteo,2013-02-14 19:19:00,
2013-02-14 14:24:00,67.0,60.0,29.91,WNW,292,0.0,1.0,77,0.00,,,0.04,Meteo,2013-02-14 19:24:00,
2013-02-14 14:29:00,67.0,59.0,29.91,WNW,292,1.0,2.0,76,0.00,,,0.04,Meteo,2013-02-14 19:29:00,
2013-02-14 14:34:00,67.0,59.0,29.91,NNW,338,3.0,5.0,75,0.00,,,0.04,Meteo,2013-02-14 19:34:00,
2013-02-14 14:39:00,66.0,58.0,29.91,NNW,346,1.0,2.0,76,0.00,,,0.04,Meteo,2013-02-14 19:39:00,
2013-02-14 14:44:00,66.0,58.0,29.91,NNW,344,0.0,1.0,76,0.00,,,0.04,Meteo,2013-02-14 19:44:00,
2013-02-14 14:49:00,66.0,59.0,29.89,North,351,3.0,6.0,77,0.00,,,0.04,Meteo,2013-02-14 19:49:00,
2013-02-14 14:54:00,66.0,58.0,29.89,North,356,2.0,5.0,76,0.00,,,0.04,Meteo,2013-02-14 19:54:00,
2013-02-14 14:59:00,66.0,59.0,29.89,North,356,1.0,2.0,77,0.00,,,0.04,Meteo,2013-02-14 19:59:00,
2013-02-14 15:04:00,66.0,59.0,29.89,North,356,2.0,6.0,77,0.00,,,0.04,Meteo,2013-02-14 20:04:00,
2013-02-14 15:09:00,66.0,59.0,29.89,North,353,1.0,3.0,77,0.00,,,0.04,Meteo,2013-02-14 20:09:00,
2013-02-14 15:14:00,66.0,58.0,29.89,NNE,27,2.0,3.0,75,0.00,,,0.04,Meteo,2013-02-14 20:14:00,
2013-02-14 15:19:00,66.0,58.0,29.88,North,357,1.0,3.0,76,0.00,,,0.04,Meteo,2013-02-14 20:19:00,
2013-02-14 15:24:00,66.0,59.0,29.88,NW,312,2.0,5.0,77,0.00,,,0.04,Meteo,2013-02-14 20:24:00,
2013-02-14 15:29:00,66.0,59.0,29.88,NW,316,2.0,2.0,77,0.00,,,0.04,Meteo,2013-02-14 20:29:00,
2013-02-14 15:34:00,65.0,58.0,29.88,NW,322,1.0,4.0,77,0.00,,,0.04,Meteo,2013-02-14 20:34:00,
2013-02-14 15:39:00,65.0,57.0,29.88,NW,322,0.0,1.0,76,0.00,,,0.04,Meteo,2013-02-14 20:39:00,
2013-02-14 15:44:00,65.0,58.0,29.88,North,0,0.0,0.0,77,0.00,,,0.04,Meteo,2013-02-14 20:44:00,
2013-02-14 15:49:00,65.0,58.0,29.88,North,0,0.0,0.0,78,0.00,,,0.04,Meteo,2013-02-14 20:49:00,
2013-02-14 15:54:00,65.0,58.0,29.88,NW,321,1.0,2.0,79,0.00,,,0.04,Meteo,2013-02-14 20:54:00,
2013-02-14 15:59:00,65.0,59.0,29.88,NW,320,2.0,3.0,80,0.00,,,0.04,Meteo,2013-02-14 20:59:00,
2013-02-14 16:04:00,65.0,59.0,29.90,North,0,0.0,0.0,80,0.00,,,0.04,Meteo,2013-02-14 21:04:00,
2013-02-14 16:09:00,65.0,59.0,29.90,NW,322,2.0,2.0,80,0.00,,,0.04,Meteo,2013-02-14 21:09:00,
2013-02-14 16:14:00,65.0,59.0,29.90,NW,322,1.0,2.0,82,0.00,,,0.04,Meteo,2013-02-14 21:14:00,
2013-02-14 16:19:00,65.0,60.0,29.90,NW,322,2.0,2.0,84,0.00,,,0.04,Meteo,2013-02-14 21:19:00,
2013-02-14 16:24:00,64.0,59.0,29.90,NW,323,1.0,2.0,85,0.00,,,0.04,Meteo,2013-02-14 21:24:00,
2013-02-14 16:29:00,64.0,60.0,29.90,North,0,0.0,0.0,87,0.00,,,0.04,Meteo,2013-02-14 21:29:00,
2013-02-14 16:34:00,64.0,60.0,29.90,North,0,0.0,0.0,88,0.00,,,0.04,Meteo,2013-02-14 21:34:00,
2013-02-14 16:39:00,63.0,60.0,29.90,North,0,0.0,0.0,90,0.00,,,0.04,Meteo,2013-02-14 21:39:00,
2013-02-14 16:44:00,63.0,60.0,29.90,North,0,0.0,0.0,90,0.00,,,0.04,Meteo,2013-02-14 21:44:00,
2013-02-14 16:49:00,63.0,61.0,29.91,North,0,0.0,0.0,92,0.00,,,0.04,Meteo,2013-02-14 21:49:00,
2013-02-14 16:54:00,63.0,61.0,29.91,NW,323,2.0,3.0,92,0.00,,,0.04,Meteo,2013-02-14 21:54:00,
2013-02-14 16:59:00,63.0,61.0,29.91,NNW,328,2.0,3.0,92,0.00,,,0.04,Meteo,2013-02-14 21:59:00,
2013-02-14 17:04:00,63.0,61.0,29.93,NNW,328,1.0,2.0,93,0.00,,,0.04,Meteo,2013-02-14 22:04:00,
2013-02-14 17:09:00,62.0,60.0,29.93,NNW,327,1.0,3.0,93,0.00,,,0.04,Meteo,2013-02-14 22:09:00,
2013-02-14 17:14:00,62.0,60.0,29.93,NNW,328,1.0,2.0,93,0.00,,,0.04,Meteo,2013-02-14 22:14:00,
2013-02-14 17:19:00,62.0,60.0,29.94,NNW,347,3.0,5.0,94,0.00,,,0.04,Meteo,2013-02-14 22:19:00,
2013-02-14 17:24:00,62.0,60.0,29.94,North,351,3.0,5.0,94,0.00,,,0.04,Meteo,2013-02-14 22:24:00,
2013-02-14 17:29:00,62.0,61.0,29.94,North,352,2.0,3.0,95,0.00,,,0.04,Meteo,2013-02-14 22:29:00,
2013-02-14 17:35:00,62.0,61.0,29.93,NNW,343,3.0,6.0,95,0.00,,,0.04,Meteo,2013-02-14 22:35:00,
2013-02-14 17:40:00,62.0,61.0,29.93,North,350,6.0,7.0,96,0.00,,,0.04,Meteo,2013-02-14 22:40:00,
2013-02-14 17:45:00,62.0,61.0,29.93,NNW,339,2.0,5.0,96,0.00,,,0.04,Meteo,2013-02-14 22:45:00,
2013-02-14 17:50:00,62.0,61.0,29.95,NNW,346,1.0,3.0,97,0.00,,,0.04,Meteo,2013-02-14 22:50:00,
2013-02-14 17:55:00,62.0,61.0,29.95,NNW,348,4.0,6.0,97,0.00,,,0.04,Meteo,2013-02-14 22:55:00,
2013-02-14 18:00:00,61.0,60.0,29.95,North,350,3.0,6.0,97,0.00,,,0.04,Meteo,2013-02-14 23:00:00,
2013-02-14 18:05:00,61.0,60.0,29.94,NNW,348,5.0,6.0,97,0.00,,,0.04,Meteo,2013-02-14 23:05:00,
2013-02-14 18:10:00,60.0,59.0,29.94,North,352,4.0,7.0,97,0.00,,,0.04,Meteo,2013-02-14 23:10:00,
2013-02-14 18:15:00,60.0,59.0,29.95,North,349,4.0,7.0,97,0.00,,,0.04,Meteo,2013-02-14 23:15:00,
2013-02-14 18:20:00,60.0,59.0,29.95,North,1,0.0,1.0,97,0.00,,,0.04,Meteo,2013-02-14 23:20:00,
2013-02-14 18:25:00,60.0,59.0,29.95,NNE,33,2.0,4.0,97,0.00,,,0.04,Meteo,2013-02-14 23:25:00,
2013-02-14 18:30:00,60.0,59.0,29.95,North,1,1.0,3.0,97,0.00,,,0.04,Meteo,2013-02-14 23:30:00,
2013-02-14 18:36:00,60.0,59.0,29.94,North,360,1.0,3.0,97,0.00,,,0.04,Meteo,2013-02-14 23:36:00,
2013-02-14 18:41:00,60.0,59.0,29.94,North,354,3.0,5.0,97,0.00,,,0.04,Meteo,2013-02-14 23:41:00,
2013-02-14 18:46:00,59.0,58.0,29.94,North,355,2.0,5.0,98,0.00,,,0.04,Meteo,2013-02-14 23:46:00,
2013-02-14 18:51:00,59.0,58.0,29.94,North,359,2.0,5.0,98,0.00,,,0.04,Meteo,2013-02-14 23:51:00,
2013-02-14 18:56:00,59.0,58.0,29.94,North,350,6.0,10.0,98,0.00,,,0.04,Meteo,2013-02-14 23:56:00,
2013-02-14 19:01:00,59.0,58.0,29.94,North,358,5.0,7.0,98,0.00,,,0.00,Meteo,2013-02-15 00:01:00,
2013-02-14 19:06:00,59.0,58.0,29.94,North,352,5.0,6.0,98,0.00,,,0.00,Meteo,2013-02-15 00:06:00,
2013-02-14 19:11:00,59.0,58.0,29.94,North,1,0.0,1.0,98,0.00,,,0.00,Meteo,2013-02-15 00:11:00,
2013-02-14 19:16:00,59.0,58.0,29.94,North,7,2.0,3.0,98,0.00,,,0.00,Meteo,2013-02-15 00:16:00,
2013-02-14 19:21:00,59.0,58.0,29.94,North,10,2.0,3.0,98,0.00,,,0.00,Meteo,2013-02-15 00:21:00,
2013-02-14 19:26:00,59.0,58.0,29.94,North,0,0.0,0.0,98,0.00,,,0.00,Meteo,2013-02-15 00:26:00,
2013-02-14 19:31:00,59.0,58.0,29.95,NNE,17,0.0,1.0,98,0.00,,,0.00,Meteo,2013-02-15 00:31:00,
2013-02-14 19:36:00,59.0,58.0,29.95,North,0,0.0,0.0,98,0.00,,,0.00,Meteo,2013-02-15 00:36:00,
2013-02-14 19:41:00,59.0,58.0,29.95,NNE,15,1.0,2.0,98,0.00,,,0.00,Meteo,2013-02-15 00:41:00,
2013-02-14 19:46:00,59.0,58.0,29.94,NE,50,0.0,3.0,98,0.00,,,0.00,Meteo,2013-02-15 00:46:00,
2013-02-14 19:51:00,59.0,58.0,29.94,North,0,0.0,0.0,98,0.00,,,0.00,Meteo,2013-02-15 00:51:00,
2013-02-14 19:56:00,58.0,57.0,29.94,North,0,0.0,0.0,98,0.00,,,0.00,Meteo,2013-02-15 00:56:00,
2013-02-14 20:01:00,58.0,57.0,29.96,NE,44,2.0,3.0,98,0.01,,,0.00,Meteo,2013-02-15 01:01:00,
2013-02-14 20:06:00,58.0,57.0,29.96,NNW,347,4.0,6.0,98,0.01,,,0.00,Meteo,2013-02-15 01:06:00,
2013-02-14 20:11:00,58.0,57.0,29.96,NNW,339,5.0,10.0,98,0.01,,,0.00,Meteo,2013-02-15 01:11:00,
2013-02-14 20:16:00,58.0,57.0,29.98,NNW,346,3.0,10.0,98,0.01,,,0.00,Meteo,2013-02-15 01:16:00,
2013-02-14 20:21:00,58.0,57.0,29.98,NNW,330,3.0,7.0,98,0.01,,,0.00,Meteo,2013-02-15 01:21:00,
2013-02-14 20:26:00,57.0,56.0,29.98,North,351,3.0,6.0,98,0.01,,,0.00,Meteo,2013-02-15 01:26:00,
2013-02-14 20:31:00,57.0,56.0,29.98,North,355,2.0,5.0,98,0.01,,,0.00,Meteo,2013-02-15 01:31:00,
2013-02-14 20:36:00,57.0,56.0,29.98,NE,50,1.0,2.0,98,0.01,,,0.00,Meteo,2013-02-15 01:36:00,
2013-02-14 20:41:00,57.0,56.0,29.98,NE,39,1.0,3.0,98,0.01,,,0.00,Meteo,2013-02-15 01:41:00,
2013-02-14 20:46:00,57.0,56.0,29.97,North,0,0.0,0.0,98,0.01,,,0.00,Meteo,2013-02-15 01:46:00,
2013-02-14 20:51:00,57.0,56.0,29.97,North,0,0.0,0.0,98,0.01,,,0.00,Meteo,2013-02-15 01:51:00,
2013-02-14 20:56:00,57.0,56.0,29.97,North,0,0.0,0.0,98,0.01,,,0.00,Meteo,2013-02-15 01:56:00,
2013-02-14 21:01:00,57.0,56.0,29.97,NE,39,0.0,2.0,98,0.00,,,0.00,Meteo,2013-02-15 02:01:00,
2013-02-14 21:06:00,57.0,56.0,29.97,NE,40,0.0,1.0,98,0.00,,,0.00,Meteo,2013-02-15 02:06:00,
2013-02-14 21:11:00,57.0,56.0,29.97,North,0,0.0,0.0,98,0.00,,,0.00,Meteo,2013-02-15 02:11:00,
2013-02-14 21:16:00,57.0,56.0,29.96,NE,39,0.0,2.0,98,0.00,,,0.00,Meteo,2013-02-15 02:16:00,
2013-02-14 21:21:00,57.0,56.0,29.96,North,0,0.0,0.0,98,0.00,,,0.00,Meteo,2013-02-15 02:21:00,
2013-02-14 21:26:00,57.0,56.0,29.96,NE,41,1.0,2.0,98,0.00,,,0.00,Meteo,2013-02-15 02:26:00,
2013-02-14 21:31:00,57.0,56.0,29.94,NE,42,0.0,1.0,98,0.00,,,0.00,Meteo,2013-02-15 02:31:00,
2013-02-14 21:36:00,57.0,56.0,29.94,North,0,0.0,0.0,98,0.00,,,0.00,Meteo,2013-02-15 02:36:00,
2013-02-14 21:41:00,57.0,56.0,29.94,NE,41,1.0,2.0,98,0.00,,,0.00,Meteo,2013-02-15 02:41:00,
2013-02-14 21:46:00,57.0,56.0,29.94,NE,41,0.0,1.0,98,0.00,,,0.00,Meteo,2013-02-15 02:46:00,
2013-02-14 21:51:00,57.0,56.0,29.94,North,0,0.0,0.0,98,0.00,,,0.00,Meteo,2013-02-15 02:51:00,
2013-02-14 21:56:00,57.0,56.0,29.94,North,0,0.0,0.0,98,0.00,,,0.00,Meteo,2013-02-15 02:56:00,
2013-02-14 22:01:00,58.0,57.0,29.94,North,0,0.0,0.0,98,0.00,,,0.00,Meteo,2013-02-15 03:01:00,
2013-02-14 22:06:00,58.0,57.0,29.94,NE,44,1.0,3.0,98,0.00,,,0.00,Meteo,2013-02-15 03:06:00,
2013-02-14 22:11:00,58.0,57.0,29.94,North,0,0.0,0.0,98,0.00,,,0.00,Meteo,2013-02-15 03:11:00,
2013-02-14 22:16:00,58.0,57.0,29.92,East,80,1.0,5.0,98,0.00,,,0.00,Meteo,2013-02-15 03:16:00,
2013-02-14 22:21:00,58.0,57.0,29.92,East,82,0.0,1.0,98,0.00,,,0.00,Meteo,2013-02-15 03:21:00,
2013-02-14 22:26:00,58.0,57.0,29.92,East,82,0.0,1.0,98,0.00,,,0.00,Meteo,2013-02-15 03:26:00,
2013-02-14 22:31:00,58.0,57.0,29.93,East,83,1.0,2.0,98,0.00,,,0.00,Meteo,2013-02-15 03:31:00,
2013-02-14 22:36:00,58.0,57.0,29.93,North,0,0.0,0.0,98,0.00,,,0.00,Meteo,2013-02-15 03:36:00,
2013-02-14 22:41:00,58.0,57.0,29.93,North,0,0.0,0.0,98,0.00,,,0.00,Meteo,2013-02-15 03:41:00,
2013-02-14 22:46:00,58.0,57.0,29.94,North,0,0.0,0.0,98,0.00,,,0.00,Meteo,2013-02-15 03:46:00,
2013-02-14 22:51:00,58.0,57.0,29.94,North,0,0.0,0.0,98,0.00,,,0.00,Meteo,2013-02-15 03:51:00,
2013-02-14 22:56:00,58.0,57.0,29.94,North,0,0.0,0.0,98,0.00,,,0.00,Meteo,2013-02-15 03:56:00,
2013-02-14 23:01:00,58.0,57.0,29.96,North,0,0.0,0.0,98,0.00,,,0.00,Meteo,2013-02-15 04:01:00,
2013-02-14 23:06:00,58.0,57.0,29.96,East,82,2.0,3.0,98,0.00,,,0.00,Meteo,2013-02-15 04:06:00,
2013-02-14 23:11:00,58.0,57.0,29.96,WNW,301,2.0,4.0,98,0.00,,,0.00,Meteo,2013-02-15 04:11:00,
2013-02-14 23:17:00,58.0,57.0,29.98,WNW,292,1.0,2.0,98,0.00,,,0.00,Meteo,2013-02-15 04:17:00,
2013-02-14 23:22:00,58.0,57.0,29.98,NNW,345,2.0,5.0,98,0.00,,,0.00,Meteo,2013-02-15 04:22:00,
2013-02-14 23:27:00,58.0,57.0,29.98,NNW,341,1.0,2.0,98,0.00,,,0.00,Meteo,2013-02-15 04:27:00,
2013-02-14 23:32:00,58.0,57.0,29.96,North,0,0.0,0.0,98,0.00,,,0.00,Meteo,2013-02-15 04:32:00,
2013-02-14 23:37:00,58.0,57.0,29.96,North,0,0.0,0.0,98,0.00,,,0.00,Meteo,2013-02-15 04:37:00,
2013-02-14 23:42:00,58.0,57.0,29.96,North,0,0.0,0.0,98,0.00,,,0.00,Meteo,2013-02-15 04:42:00,
2013-02-14 23:47:00,58.0,57.0,29.95,North,0,0.0,0.0,98,0.00,,,0.00,Meteo,2013-02-15 04:47:00,
2013-02-14 23:52:00,58.0,57.0,29.95,North,0,0.0,0.0,98,0.00,,,0.00,Meteo,2013-02-15 04:52:00,
2013-02-14 23:57:00,58.0,57.0,29.95,North,0,0.0,0.0,98,0.00,,,0.00,Meteo,2013-02-15 04:57:00,